createdAt,value
2016-09-17T00:00:21.944Z,98.95
2016-09-17T00:01:21.347Z,98.57
2016-09-17T00:02:20.951Z,98.66
2016-09-17T00:03:20.695Z,98.75
2016-09-17T00:04:20.769Z,98.66
2016-09-17T00:05:20.514Z,98.47
2016-09-17T00:06:21.719Z,98.75
2016-09-17T00:07:20.559Z,98.47
2016-09-17T00:08:20.989Z,99.14
2016-09-17T00:09:21.220Z,98.95
2016-09-17T00:10:20.823Z,99.14
2016-09-17T00:11:22.186Z,99.04
2016-09-17T00:12:20.465Z,99.04
2016-09-17T00:13:21.352Z,98.85
2016-09-17T00:14:21.450Z,99.14
2016-09-17T00:15:20.869Z,98.66
2016-09-17T00:16:22.090Z,99.81
2016-09-17T00:17:21.255Z,99.52
2016-09-17T00:18:21.986Z,99.24
2016-09-17T00:19:22.360Z,98.42
2016-09-17T00:20:21.573Z,98.38
2016-09-17T00:21:22.164Z,98.42
2016-09-17T00:22:22.132Z,98.99
2016-09-17T00:23:22.531Z,98.13
2016-09-17T00:24:22.487Z,98.99
2016-09-17T00:25:22.396Z,99.66
2016-09-17T00:26:21.297Z,99.57
2016-09-17T00:27:22.341Z,99.66
2016-09-17T00:28:20.939Z,99.48
2016-09-17T00:29:21.895Z,99.76
2016-09-17T00:30:22.160Z,99.57
2016-09-17T00:31:23.605Z,99.48
2016-09-17T00:32:22.880Z,99.48
2016-09-17T00:33:21.668Z,99.28
2016-09-17T00:34:21.800Z,99.19
2016-09-17T00:35:22.158Z,99.38
2016-09-17T00:36:22.234Z,99.57
2016-09-17T00:37:22.312Z,99.57
2016-09-17T00:38:21.206Z,99.28
2016-09-17T00:39:21.776Z,98.42
2016-09-17T00:40:22.310Z,98.71
2016-09-17T00:41:22.409Z,98.8
2016-09-17T00:42:22.915Z,99.66
2016-09-17T00:43:21.245Z,99.38
2016-09-17T00:44:21.877Z,99.85
2016-09-17T00:45:21.604Z,99.76
2016-09-17T00:46:22.120Z,99.38
2016-09-17T00:47:22.174Z,99.38
2016-09-17T00:48:23.135Z,98.9
2016-09-17T00:49:22.774Z,99.66
2016-09-17T00:50:23.102Z,99.38
2016-09-17T00:51:21.637Z,99.57
2016-09-17T00:52:21.685Z,99.99
2016-09-17T00:53:22.820Z,99.99
2016-09-17T00:54:23.142Z,99.99
2016-09-17T00:55:21.421Z,99.99
2016-09-17T00:56:22.484Z,99.99
2016-09-17T00:57:22.746Z,99.99
2016-09-17T00:58:22.006Z,99.99
2016-09-17T00:59:22.518Z,99.99
2016-09-17T01:00:21.937Z,99.99
2016-09-17T01:01:22.596Z,99.99
2016-09-17T01:02:21.893Z,99.99
2016-09-17T01:03:22.563Z,99.99
2016-09-17T01:04:22.596Z,99.99
2016-09-17T01:05:22.443Z,99.99
2016-09-17T01:06:22.767Z,99.99
2016-09-17T01:07:22.501Z,99.99
2016-09-17T01:08:23.877Z,99.99
2016-09-17T01:09:22.610Z,99.99
2016-09-17T01:10:22.667Z,99.99
2016-09-17T01:11:22.405Z,99.99
2016-09-17T01:12:23.195Z,99.57
2016-09-17T01:13:21.938Z,99.48
2016-09-17T01:14:21.991Z,99.48
2016-09-17T01:15:22.607Z,99.38
2016-09-17T01:16:22.326Z,98.99
2016-09-17T01:17:22.083Z,98.99
2016-09-17T01:18:22.408Z,98.99
2016-09-17T01:19:22.285Z,99.66
2016-09-17T01:20:22.741Z,99.99
2016-09-17T01:21:24.556Z,99.57
2016-09-17T01:22:22.906Z,99.48
2016-09-17T01:23:23.469Z,99.48
2016-09-17T01:24:22.108Z,99.38
2016-09-17T01:25:24.091Z,98.99
2016-09-17T01:26:22.378Z,99.38
2016-09-17T01:27:22.494Z,98.71
2016-09-17T01:28:23.013Z,99.09
2016-09-17T01:29:23.135Z,98.99
2016-09-17T01:30:23.941Z,98.8
2016-09-17T01:31:22.055Z,98.99
2016-09-17T01:32:23.219Z,98.9
2016-09-17T01:33:22.686Z,98.61
2016-09-17T01:34:22.933Z,98.99
2016-09-17T01:35:24.825Z,98.99
2016-09-17T01:36:23.033Z,99.28
2016-09-17T01:37:23.174Z,99.99
2016-09-17T01:38:23.728Z,99.76
2016-09-17T01:39:22.489Z,99.57
2016-09-17T01:40:22.551Z,99.66
2016-09-17T01:41:22.830Z,99.66
2016-09-17T01:42:23.362Z,99.57
2016-09-17T01:43:22.541Z,99.85
2016-09-17T01:44:23.736Z,99.85
2016-09-17T01:45:23.972Z,99.99
2016-09-17T01:46:23.113Z,99.99
2016-09-17T01:47:23.036Z,99.99
2016-09-17T01:48:22.467Z,99.99
2016-09-17T01:49:22.861Z,99.99
2016-09-17T01:50:22.738Z,99.99
2016-09-17T01:51:23.210Z,99.99
2016-09-17T01:52:23.176Z,99.99
2016-09-17T01:53:26.421Z,99.99
2016-09-17T01:54:22.995Z,99.99
2016-09-17T01:55:24.010Z,99.99
2016-09-17T01:56:23.156Z,99.99
2016-09-17T01:57:23.993Z,99.99
2016-09-17T01:58:24.583Z,99.99
2016-09-17T01:59:24.005Z,99.99
2016-09-17T02:00:23.525Z,99.99
2016-09-17T02:01:24.046Z,99.99
2016-09-17T02:02:23.125Z,99.99
2016-09-17T02:03:23.833Z,99.99
2016-09-17T02:04:22.954Z,99.99
2016-09-17T02:05:24.178Z,99.99
2016-09-17T02:06:24.626Z,99.99
2016-09-17T02:07:23.438Z,99.99
2016-09-17T02:08:24.066Z,99.99
2016-09-17T02:09:23.058Z,99.99
2016-09-17T02:10:23.773Z,99.99
2016-09-17T02:11:22.693Z,99.99
2016-09-17T02:12:23.094Z,99.99
2016-09-17T02:13:24.055Z,99.99
2016-09-17T02:14:24.272Z,99.99
2016-09-17T02:15:24.081Z,99.99
2016-09-17T02:16:23.801Z,99.99
2016-09-17T02:17:23.161Z,99.99
2016-09-17T02:18:24.264Z,99.99
2016-09-17T02:19:23.090Z,99.99
2016-09-17T02:20:23.703Z,99.99
2016-09-17T02:21:23.767Z,99.99
2016-09-17T02:22:24.008Z,99.99
2016-09-17T02:23:24.008Z,99.99
2016-09-17T02:24:23.879Z,99.99
2016-09-17T02:25:23.972Z,99.99
2016-09-17T02:26:24.814Z,99.99
2016-09-17T02:27:23.754Z,99.99
2016-09-17T02:28:23.972Z,99.99
2016-09-17T02:29:23.749Z,99.99
2016-09-17T02:30:24.383Z,99.99
2016-09-17T02:31:23.916Z,99.95
2016-09-17T02:32:24.437Z,99.57
2016-09-17T02:33:23.931Z,99.76
2016-09-17T02:34:25.168Z,99.99
2016-09-17T02:35:23.932Z,99.99
2016-09-17T02:36:24.382Z,99.99
2016-09-17T02:37:24.054Z,99.99
2016-09-17T02:38:24.179Z,99.99
2016-09-17T02:39:23.503Z,99.99
2016-09-17T02:40:23.868Z,99.99
2016-09-17T02:41:24.573Z,99.99
2016-09-17T02:42:24.071Z,99.99
2016-09-17T02:43:24.643Z,99.99
2016-09-17T02:44:24.188Z,99.99
2016-09-17T02:45:24.093Z,99.99
2016-09-17T02:46:24.743Z,99.99
2016-09-17T02:47:25.561Z,99.99
2016-09-17T02:48:24.114Z,99.99
2016-09-17T02:49:23.932Z,99.85
2016-09-17T02:50:23.984Z,99.99
2016-09-17T02:51:24.192Z,99.85
2016-09-17T02:52:24.656Z,99.95
2016-09-17T02:53:24.896Z,99.99
2016-09-17T02:54:24.539Z,99.99
2016-09-17T02:55:24.707Z,99.99
2016-09-17T02:56:24.537Z,99.99
2016-09-17T02:57:25.304Z,99.99
2016-09-17T02:58:25.835Z,99.99
2016-09-17T02:59:24.605Z,99.99
2016-09-17T03:00:24.606Z,99.99
2016-09-17T03:01:24.250Z,99.99
2016-09-17T03:02:24.808Z,99.99
2016-09-17T03:03:24.866Z,99.99
2016-09-17T03:04:26.230Z,99.99
2016-09-17T03:05:24.368Z,99.99
2016-09-17T03:06:25.325Z,99.99
2016-09-17T03:07:25.237Z,99.99
2016-09-17T03:08:25.196Z,99.99
2016-09-17T03:09:24.951Z,99.99
2016-09-17T03:10:25.397Z,99.99
2016-09-17T03:11:24.914Z,99.99
2016-09-17T03:12:25.740Z,99.99
2016-09-17T03:13:25.521Z,99.99
2016-09-17T03:14:24.758Z,99.99
2016-09-17T03:15:25.420Z,99.99
2016-09-17T03:16:24.849Z,99.99
2016-09-17T03:17:25.873Z,99.99
2016-09-17T03:18:25.139Z,99.99
2016-09-17T03:19:24.770Z,99.99
2016-09-17T03:20:24.900Z,99.99
2016-09-17T03:21:24.949Z,99.99
2016-09-17T03:22:24.944Z,99.99
2016-09-17T03:23:25.407Z,99.99
2016-09-17T03:24:25.314Z,99.99
2016-09-17T03:25:25.983Z,99.99
2016-09-17T03:26:24.914Z,99.99
2016-09-17T03:27:24.555Z,99.99
2016-09-17T03:28:25.892Z,99.99
2016-09-17T03:29:25.923Z,99.99
2016-09-17T03:30:25.543Z,99.99
2016-09-17T03:31:25.597Z,99.99
2016-09-17T03:32:26.087Z,99.99
2016-09-17T03:33:25.460Z,99.99
2016-09-17T03:34:25.932Z,99.99
2016-09-17T03:35:26.123Z,99.99
2016-09-17T03:36:25.853Z,99.99
2016-09-17T03:37:25.277Z,99.99
2016-09-17T03:38:25.648Z,99.99
2016-09-17T03:39:24.900Z,99.99
2016-09-17T03:40:25.292Z,99.99
2016-09-17T03:41:26.773Z,99.99
2016-09-17T03:42:25.050Z,99.99
2016-09-17T03:43:25.577Z,99.99
2016-09-17T03:44:24.859Z,99.99
2016-09-17T03:45:25.974Z,99.99
2016-09-17T03:46:24.587Z,99.99
2016-09-17T03:47:25.404Z,99.99
2016-09-17T03:48:25.956Z,99.99
2016-09-17T03:49:25.410Z,99.99
2016-09-17T03:50:25.131Z,99.99
2016-09-17T03:51:26.378Z,99.99
2016-09-17T03:52:26.014Z,99.99
2016-09-17T03:53:25.120Z,99.99
2016-09-17T03:54:25.344Z,99.99
2016-09-17T03:55:26.075Z,99.99
2016-09-17T03:56:26.583Z,99.99
2016-09-17T03:57:26.251Z,99.99
2016-09-17T03:58:26.295Z,99.99
2016-09-17T03:59:27.297Z,99.99
2016-09-17T04:00:26.824Z,99.99
2016-09-17T04:01:25.332Z,99.99
2016-09-17T04:02:26.193Z,99.99
2016-09-17T04:03:26.541Z,99.99
2016-09-17T04:04:26.209Z,99.99
2016-09-17T04:05:25.049Z,99.99
2016-09-17T04:06:26.714Z,99.99
2016-09-17T04:07:26.725Z,99.99
2016-09-17T04:08:27.305Z,99.99
2016-09-17T04:09:26.911Z,99.99
2016-09-17T04:10:26.395Z,99.99
2016-09-17T04:11:25.928Z,99.99
2016-09-17T04:12:26.904Z,99.99
2016-09-17T04:13:25.694Z,99.99
2016-09-17T04:14:27.015Z,99.99
2016-09-17T04:15:25.624Z,99.99
2016-09-17T04:16:27.256Z,99.99
2016-09-17T04:17:25.555Z,99.99
2016-09-17T04:18:25.777Z,99.99
2016-09-17T04:19:25.999Z,99.99
2016-09-17T04:20:25.883Z,99.99
2016-09-17T04:21:26.837Z,99.99
2016-09-17T04:22:26.605Z,99.99
2016-09-17T04:23:26.819Z,99.99
2016-09-17T04:24:25.611Z,99.99
2016-09-17T04:25:27.507Z,99.99
2016-09-17T04:26:27.577Z,99.99
2016-09-17T04:27:26.410Z,99.99
2016-09-17T04:28:27.197Z,99.99
2016-09-17T04:29:27.287Z,99.99
2016-09-17T04:30:25.465Z,99.99
2016-09-17T04:31:26.341Z,99.99
2016-09-17T04:32:26.525Z,99.99
2016-09-17T04:33:27.114Z,99.99
2016-09-17T04:34:26.278Z,99.99
2016-09-17T04:35:26.019Z,99.99
2016-09-17T04:36:27.072Z,99.99
2016-09-17T04:37:27.048Z,99.99
2016-09-17T04:38:26.413Z,99.99
2016-09-17T04:39:27.425Z,99.99
2016-09-17T04:40:27.152Z,99.99
2016-09-17T04:41:27.971Z,99.99
2016-09-17T04:42:26.217Z,99.99
2016-09-17T04:43:26.594Z,99.99
2016-09-17T04:44:26.470Z,99.99
2016-09-17T04:45:27.771Z,99.99
2016-09-17T04:46:26.792Z,99.99
2016-09-17T04:47:27.094Z,99.99
2016-09-17T04:48:26.850Z,99.99
2016-09-17T04:49:27.538Z,99.99
2016-09-17T04:50:27.860Z,99.99
2016-09-17T04:51:26.889Z,99.99
2016-09-17T04:52:26.873Z,99.99
2016-09-17T04:53:26.740Z,99.99
2016-09-17T04:54:26.842Z,99.99
2016-09-17T04:55:27.039Z,99.99
2016-09-17T04:56:26.894Z,99.99
2016-09-17T04:57:27.077Z,99.99
2016-09-17T04:58:27.045Z,99.99
2016-09-17T04:59:27.759Z,99.99
2016-09-17T05:00:27.850Z,99.99
2016-09-17T05:01:27.613Z,99.99
2016-09-17T05:02:26.809Z,99.99
2016-09-17T05:03:27.387Z,99.99
2016-09-17T05:04:26.970Z,99.99
2016-09-17T05:05:26.938Z,99.99
2016-09-17T05:06:26.766Z,99.99
2016-09-17T05:07:28.093Z,99.99
2016-09-17T05:08:27.454Z,99.99
2016-09-17T05:09:27.121Z,99.99
2016-09-17T05:10:27.449Z,99.99
2016-09-17T05:11:27.308Z,99.99
2016-09-17T05:12:27.551Z,99.99
2016-09-17T05:13:27.661Z,99.99
2016-09-17T05:14:26.892Z,99.99
2016-09-17T05:15:27.263Z,99.99
2016-09-17T05:16:27.443Z,99.99
2016-09-17T05:17:27.631Z,99.99
2016-09-17T05:18:27.824Z,99.99
2016-09-17T05:19:27.622Z,99.99
2016-09-17T05:20:27.480Z,99.99
2016-09-17T05:21:27.169Z,99.99
2016-09-17T05:22:28.766Z,99.99
2016-09-17T05:23:29.129Z,99.99
2016-09-17T05:24:28.168Z,99.99
2016-09-17T05:25:27.622Z,99.99
2016-09-17T05:26:28.253Z,99.99
2016-09-17T05:27:27.335Z,99.99
2016-09-17T05:28:27.992Z,99.99
2016-09-17T05:29:28.120Z,99.99
2016-09-17T05:30:27.866Z,99.99
2016-09-17T05:31:28.299Z,99.99
2016-09-17T05:32:29.123Z,99.99
2016-09-17T05:33:28.304Z,99.99
2016-09-17T05:34:26.848Z,99.99
2016-09-17T05:35:27.933Z,99.99
2016-09-17T05:36:27.401Z,99.99
2016-09-17T05:37:27.999Z,99.99
2016-09-17T05:38:28.003Z,99.99
2016-09-17T05:39:27.182Z,99.99
2016-09-17T05:40:27.293Z,99.99
2016-09-17T05:41:29.218Z,99.99
2016-09-17T05:42:27.142Z,99.99
2016-09-17T05:43:27.683Z,99.99
2016-09-17T05:44:27.249Z,99.99
2016-09-17T05:45:28.817Z,99.99
2016-09-17T05:46:28.811Z,99.99
2016-09-17T05:47:28.167Z,99.99
2016-09-17T05:48:27.875Z,99.99
2016-09-17T05:49:29.315Z,99.99
2016-09-17T05:50:26.952Z,99.99
2016-09-17T05:51:28.290Z,99.99
2016-09-17T05:52:28.314Z,99.99
2016-09-17T05:53:29.641Z,99.99
2016-09-17T05:54:29.282Z,99.99
2016-09-17T05:55:28.371Z,99.99
2016-09-17T05:56:27.968Z,99.99
2016-09-17T05:57:27.972Z,99.99
2016-09-17T05:58:29.761Z,99.99
2016-09-17T05:59:27.967Z,99.99
2016-09-17T06:00:27.789Z,99.99
2016-09-17T06:01:28.017Z,99.43
2016-09-17T06:02:30.086Z,99.9
2016-09-17T06:03:27.893Z,99.52
2016-09-17T06:04:28.372Z,98.85
2016-09-17T06:05:28.149Z,99.14
2016-09-17T06:06:27.722Z,99.76
2016-09-17T06:07:29.552Z,99.1
2016-09-17T06:08:29.096Z,98.71
2016-09-17T06:09:28.097Z,99.1
2016-09-17T06:10:29.956Z,99.29
2016-09-17T06:11:28.251Z,98.71
2016-09-17T06:12:28.142Z,98.71
2016-09-17T06:13:28.378Z,98.43
2016-09-17T06:14:28.376Z,98.33
2016-09-17T06:15:29.291Z,98.61
2016-09-17T06:16:29.283Z,98.61
2016-09-17T06:17:29.025Z,98.71
2016-09-17T06:18:29.083Z,98.71
2016-09-17T06:19:27.945Z,98.52
2016-09-17T06:20:28.297Z,98.24
2016-09-17T06:21:28.858Z,99.1
2016-09-17T06:22:27.946Z,98.9
2016-09-17T06:23:28.332Z,98.24
2016-09-17T06:24:28.228Z,98.33
2016-09-17T06:25:28.831Z,97.95
2016-09-17T06:26:30.281Z,98.14
2016-09-17T06:27:28.321Z,97.85
2016-09-17T06:28:28.853Z,97.85
2016-09-17T06:29:29.228Z,97.61
2016-09-17T06:30:28.681Z,96.7
2016-09-17T06:31:28.296Z,96.99
2016-09-17T06:32:28.074Z,96.89
2016-09-17T06:33:29.563Z,96.89
2016-09-17T06:34:28.786Z,97.13
2016-09-17T06:35:29.593Z,97.04
2016-09-17T06:36:28.162Z,97.61
2016-09-17T06:37:29.984Z,97.61
2016-09-17T06:38:28.610Z,98.09
2016-09-17T06:39:28.592Z,96.75
2016-09-17T06:40:29.020Z,97.13
2016-09-17T06:41:29.128Z,95.98
2016-09-17T06:42:28.857Z,96.18
2016-09-17T06:43:28.558Z,97.23
2016-09-17T06:44:29.332Z,96.08
2016-09-17T06:45:28.631Z,96.08
2016-09-17T06:46:29.317Z,95.98
2016-09-17T06:47:29.078Z,96.08
2016-09-17T06:48:29.882Z,95.61
2016-09-17T06:49:30.029Z,96.56
2016-09-17T06:50:29.249Z,97.23
2016-09-17T06:51:28.545Z,96.47
2016-09-17T06:52:29.827Z,96.18
2016-09-17T06:53:29.048Z,95.61
2016-09-17T06:54:28.988Z,95.61
2016-09-17T06:55:29.731Z,95.51
2016-09-17T06:56:29.193Z,95.98
2016-09-17T06:57:29.028Z,96.27
2016-09-17T06:58:29.191Z,94.84
2016-09-17T06:59:28.976Z,95.12
2016-09-17T07:00:29.701Z,95.12
2016-09-17T07:01:29.307Z,95.31
2016-09-17T07:02:29.259Z,95.61
2016-09-17T07:03:29.146Z,95.89
2016-09-17T07:04:29.256Z,95.12
2016-09-17T07:05:29.179Z,95.41
2016-09-17T07:06:29.661Z,94.36
2016-09-17T07:07:29.104Z,96.08
2016-09-17T07:08:30.769Z,94.65
2016-09-17T07:09:29.348Z,93.93
2016-09-17T07:10:29.963Z,93.54
2016-09-17T07:11:30.506Z,93.45
2016-09-17T07:12:29.244Z,91.72
2016-09-17T07:13:30.024Z,93.54
2016-09-17T07:14:30.217Z,92.58
2016-09-17T07:15:29.881Z,93.59
2016-09-17T07:16:30.065Z,93.02
2016-09-17T07:17:30.006Z,94.07
2016-09-17T07:18:30.051Z,92.73
2016-09-17T07:19:29.645Z,91.86
2016-09-17T07:20:30.336Z,91.77
2016-09-17T07:21:31.810Z,91.19
2016-09-17T07:22:30.317Z,91.1
2016-09-17T07:23:29.394Z,93.21
2016-09-17T07:24:30.213Z,91.82
2016-09-17T07:25:30.083Z,91.86
2016-09-17T07:26:30.482Z,92.39
2016-09-17T07:27:30.152Z,90.95
2016-09-17T07:28:30.492Z,90.47
2016-09-17T07:29:30.441Z,88.46
2016-09-17T07:30:30.262Z,87.88
2016-09-17T07:31:31.117Z,88.56
2016-09-17T07:32:30.194Z,89.04
2016-09-17T07:33:30.142Z,88.75
2016-09-17T07:34:30.659Z,89.76
2016-09-17T07:35:30.244Z,90.62
2016-09-17T07:36:29.966Z,89.57
2016-09-17T07:37:31.245Z,88.8
2016-09-17T07:38:29.811Z,88.7
2016-09-17T07:39:30.375Z,88.61
2016-09-17T07:40:30.923Z,89.47
2016-09-17T07:41:29.761Z,90.62
2016-09-17T07:42:30.063Z,89.28
2016-09-17T07:43:31.045Z,89.37
2016-09-17T07:44:30.276Z,89.18
2016-09-17T07:45:30.181Z,89.28
2016-09-17T07:46:29.755Z,89.86
2016-09-17T07:47:30.986Z,89.09
2016-09-17T07:48:29.949Z,89.66
2016-09-17T07:49:30.399Z,89.86
2016-09-17T07:50:31.444Z,90.14
2016-09-17T07:51:30.155Z,89.47
2016-09-17T07:52:30.770Z,87.94
2016-09-17T07:53:30.729Z,88.23
2016-09-17T07:54:31.450Z,87.84
2016-09-17T07:55:30.418Z,88.03
2016-09-17T07:56:30.138Z,88.56
2016-09-17T07:57:30.264Z,88.56
2016-09-17T07:58:31.172Z,88.84
2016-09-17T07:59:30.924Z,87.79
2016-09-17T08:00:30.660Z,87.41
2016-09-17T08:01:30.235Z,87.98
2016-09-17T08:02:30.575Z,87.79
2016-09-17T08:03:30.287Z,88.27
2016-09-17T08:04:31.302Z,88.08
2016-09-17T08:05:32.784Z,87.02
2016-09-17T08:06:31.026Z,87.41
2016-09-17T08:07:31.955Z,86.74
2016-09-17T08:08:31.248Z,87.98
2016-09-17T08:09:32.919Z,86.64
2016-09-17T08:10:31.171Z,86.83
2016-09-17T08:11:31.082Z,86.97
2016-09-17T08:12:31.820Z,85.25
2016-09-17T08:13:31.455Z,85.58
2016-09-17T08:14:31.511Z,84.77
2016-09-17T08:15:33.882Z,84.67
2016-09-17T08:16:32.027Z,84.72
2016-09-17T08:17:32.514Z,85.01
2016-09-17T08:18:31.074Z,85.63
2016-09-17T08:19:31.862Z,84.67
2016-09-17T08:20:31.448Z,85.44
2016-09-17T08:21:30.760Z,83.81
2016-09-17T08:22:31.142Z,84.19
2016-09-17T08:23:32.340Z,83.71
2016-09-17T08:24:32.765Z,83.81
2016-09-17T08:25:30.963Z,83.33
2016-09-17T08:26:30.746Z,83.14
2016-09-17T08:27:32.158Z,83.04
2016-09-17T08:28:32.849Z,83.71
2016-09-17T08:29:31.751Z,84.09
2016-09-17T08:30:31.362Z,85.38
2016-09-17T08:31:30.956Z,85.38
2016-09-17T08:32:31.869Z,84.81
2016-09-17T08:33:31.773Z,85
2016-09-17T08:34:31.844Z,83.75
2016-09-17T08:35:32.707Z,85.58
2016-09-17T08:36:31.524Z,83.85
2016-09-17T08:37:32.012Z,83.85
2016-09-17T08:38:32.148Z,83.56
2016-09-17T08:39:32.137Z,84.42
2016-09-17T08:40:32.033Z,83.18
2016-09-17T08:41:32.668Z,84.42
2016-09-17T08:42:32.781Z,84.71
2016-09-17T08:43:32.022Z,84.42
2016-09-17T08:44:31.842Z,84.42
2016-09-17T08:45:32.040Z,84.14
2016-09-17T08:46:32.357Z,85.48
2016-09-17T08:47:35.098Z,85.28
2016-09-17T08:48:32.085Z,85.67
2016-09-17T08:49:32.182Z,84.23
2016-09-17T08:50:32.291Z,85.19
2016-09-17T08:51:32.522Z,85.77
2016-09-17T08:52:32.082Z,85.77
2016-09-17T08:53:32.705Z,85.28
2016-09-17T08:54:32.550Z,86.44
2016-09-17T08:55:31.853Z,86.92
2016-09-17T08:56:33.471Z,86.15
2016-09-17T08:57:32.222Z,85.82
2016-09-17T08:58:32.062Z,85.48
2016-09-17T08:59:31.790Z,85.38
2016-09-17T09:00:31.517Z,85.77
2016-09-17T09:01:32.522Z,85.77
2016-09-17T09:02:32.615Z,85.77
2016-09-17T09:03:32.807Z,86.44
2016-09-17T09:04:32.774Z,86.54
2016-09-17T09:05:31.804Z,85.67
2016-09-17T09:06:32.071Z,85.77
2016-09-17T09:07:33.012Z,85.58
2016-09-17T09:08:32.824Z,85.28
2016-09-17T09:09:32.984Z,85.77
2016-09-17T09:10:32.255Z,86.34
2016-09-17T09:11:32.680Z,85.19
2016-09-17T09:12:32.934Z,86.92
2016-09-17T09:13:34.644Z,85.48
2016-09-17T09:14:33.426Z,85.48
2016-09-17T09:15:33.136Z,86.82
2016-09-17T09:16:33.443Z,84.81
2016-09-17T09:17:32.166Z,84.71
2016-09-17T09:18:32.788Z,85.58
2016-09-17T09:19:34.050Z,85.77
2016-09-17T09:20:32.888Z,85.77
2016-09-17T09:21:33.667Z,85.28
2016-09-17T09:22:33.016Z,85.67
2016-09-17T09:23:33.658Z,85.38
2016-09-17T09:24:33.772Z,85.58
2016-09-17T09:25:34.022Z,85.58
2016-09-17T09:26:33.616Z,85.77
2016-09-17T09:27:33.012Z,86.34
2016-09-17T09:28:32.925Z,87.49
2016-09-17T09:29:33.544Z,87.78
2016-09-17T09:30:34.044Z,87.98
2016-09-17T09:31:33.347Z,88.55
2016-09-17T09:32:32.860Z,88.65
2016-09-17T09:33:33.960Z,89.12
2016-09-17T09:34:33.740Z,89.79
2016-09-17T09:35:33.520Z,89.22
2016-09-17T09:36:33.825Z,89.51
2016-09-17T09:37:32.626Z,90.71
2016-09-17T09:38:32.998Z,90.56
2016-09-17T09:39:33.824Z,90.71
2016-09-17T09:40:33.757Z,89.94
2016-09-17T09:41:34.397Z,89.94
2016-09-17T09:42:37.022Z,90.14
2016-09-17T09:43:32.731Z,91.28
2016-09-17T09:44:33.560Z,93.21
2016-09-17T09:45:33.127Z,91.57
2016-09-17T09:46:33.580Z,92.24
2016-09-17T09:47:35.145Z,92.54
2016-09-17T09:48:33.145Z,93.4
2016-09-17T09:49:34.386Z,91.48
2016-09-17T09:50:33.712Z,92.34
2016-09-17T09:51:33.438Z,92.72
2016-09-17T09:52:33.457Z,92.63
2016-09-17T09:53:33.212Z,92.15
2016-09-17T09:54:33.664Z,92.34
2016-09-17T09:55:32.753Z,92.05
2016-09-17T09:56:33.339Z,92.54
2016-09-17T09:57:33.216Z,93.88
2016-09-17T09:58:33.285Z,92.34
2016-09-17T09:59:33.970Z,92.68
2016-09-17T10:00:33.054Z,93.68
2016-09-17T10:01:34.924Z,92.68
2016-09-17T10:02:33.807Z,92.48
2016-09-17T10:03:34.049Z,93.11
2016-09-17T10:04:34.100Z,93.54
2016-09-17T10:05:33.716Z,91.81
2016-09-17T10:06:33.712Z,92.58
2016-09-17T10:07:33.544Z,92.68
2016-09-17T10:08:36.848Z,92.48
2016-09-17T10:09:33.528Z,92.29
2016-09-17T10:10:35.463Z,91.19
2016-09-17T10:11:33.668Z,90.32
2016-09-17T10:12:33.739Z,90.28
2016-09-17T10:13:34.852Z,90.42
2016-09-17T10:14:33.932Z,91.05
2016-09-17T10:15:35.464Z,90.95
2016-09-17T10:16:33.759Z,91.62
2016-09-17T10:17:34.442Z,92.48
2016-09-17T10:18:34.018Z,92.58
2016-09-17T10:19:33.731Z,92.29
2016-09-17T10:20:34.878Z,93.73
2016-09-17T10:21:34.468Z,92.86
2016-09-17T10:22:35.597Z,94.02
2016-09-17T10:23:34.388Z,93.35
2016-09-17T10:24:34.339Z,94.31
2016-09-17T10:25:33.778Z,94.59
2016-09-17T10:26:34.424Z,93.54
2016-09-17T10:27:34.166Z,94.02
2016-09-17T10:28:33.907Z,93.73
2016-09-17T10:29:33.763Z,93.44
2016-09-17T10:30:33.879Z,94.12
2016-09-17T10:31:33.667Z,94.21
2016-09-17T10:32:35.424Z,93.78
2016-09-17T10:33:35.164Z,94.54
2016-09-17T10:34:35.396Z,94.93
2016-09-17T10:35:34.228Z,95.31
2016-09-17T10:36:35.207Z,95.6
2016-09-17T10:37:33.815Z,96.75
2016-09-17T10:38:34.395Z,97.42
2016-09-17T10:39:36.928Z,98.38
2016-09-17T10:40:34.496Z,98.38
2016-09-17T10:41:35.233Z,96.94
2016-09-17T10:42:35.102Z,98.33
2016-09-17T10:43:34.125Z,98.48
2016-09-17T10:44:34.209Z,97.95
2016-09-17T10:45:34.954Z,98.52
2016-09-17T10:46:34.269Z,98.43
2016-09-17T10:47:34.148Z,98.33
2016-09-17T10:48:34.220Z,98.91
2016-09-17T10:49:34.443Z,98.72
2016-09-17T10:50:35.297Z,98.52
2016-09-17T10:51:35.627Z,99.01
2016-09-17T10:52:34.297Z,99.77
2016-09-17T10:53:35.921Z,99.77
2016-09-17T10:54:33.995Z,98.81
2016-09-17T10:55:35.101Z,99.39
2016-09-17T10:56:34.474Z,99.68
2016-09-17T10:57:35.117Z,99.99
2016-09-17T10:58:37.986Z,99.99
2016-09-17T10:59:35.166Z,99.99
2016-09-17T11:00:34.444Z,99.99
2016-09-17T11:01:35.143Z,99.99
2016-09-17T11:02:35.127Z,99.99
2016-09-17T11:03:34.411Z,99.99
2016-09-17T11:04:36.109Z,99.99
2016-09-17T11:05:36.182Z,99.99
2016-09-17T11:06:35.992Z,99.99
2016-09-17T11:07:35.367Z,99.99
2016-09-17T11:08:35.694Z,99.99
2016-09-17T11:09:35.103Z,99.99
2016-09-17T11:10:35.768Z,99.99
2016-09-17T11:11:36.463Z,99.99
2016-09-17T11:12:35.114Z,99.99
2016-09-17T11:13:35.448Z,99.99
2016-09-17T11:14:35.328Z,99.99
2016-09-17T11:15:35.868Z,99.99
2016-09-17T11:16:35.464Z,99.99
2016-09-17T11:17:35.008Z,99.99
2016-09-17T11:18:36.061Z,99.99
2016-09-17T11:19:35.383Z,99.99
2016-09-17T11:20:36.539Z,99.99
2016-09-17T11:21:36.099Z,99.99
2016-09-17T11:22:35.758Z,99.99
2016-09-17T11:23:35.555Z,99.99
2016-09-17T11:24:35.302Z,99.99
2016-09-17T11:25:35.988Z,99.99
2016-09-17T11:26:36.046Z,99.99
2016-09-17T11:27:36.529Z,99.99
2016-09-17T11:28:34.977Z,99.99
2016-09-17T11:29:36.306Z,99.99
2016-09-17T11:30:35.641Z,99.99
2016-09-17T11:31:35.868Z,99.99
2016-09-17T11:32:35.790Z,99.99
2016-09-17T11:33:35.880Z,99.99
2016-09-17T11:34:35.759Z,99.99
2016-09-17T11:35:35.741Z,99.99
2016-09-17T11:36:36.118Z,99.99
2016-09-17T11:37:35.704Z,99.99
2016-09-17T11:38:35.939Z,99.99
2016-09-17T11:39:35.202Z,99.99
2016-09-17T11:40:36.287Z,99.99
2016-09-17T11:41:35.394Z,99.99
2016-09-17T11:42:36.034Z,99.99
2016-09-17T11:43:35.441Z,99.99
2016-09-17T11:44:35.971Z,99.99
2016-09-17T11:45:36.031Z,99.99
2016-09-17T11:46:35.595Z,99.99
2016-09-17T11:47:35.951Z,99.99
2016-09-17T11:48:36.223Z,99.99
2016-09-17T11:49:37.120Z,99.99
2016-09-17T11:50:36.735Z,99.99
2016-09-17T11:51:36.156Z,99.99
2016-09-17T11:52:36.010Z,99.99
2016-09-17T11:53:36.615Z,99.99
2016-09-17T11:54:35.976Z,99.99
2016-09-17T11:55:36.547Z,99.99
2016-09-17T11:56:37.883Z,99.99
2016-09-17T11:57:36.262Z,99.99
2016-09-17T11:58:37.969Z,99.99
2016-09-17T11:59:36.743Z,99.99
2016-09-17T12:00:36.425Z,99.99
2016-09-17T12:01:36.709Z,99.99
2016-09-17T12:02:35.809Z,99.99
2016-09-17T12:03:36.919Z,99.99
2016-09-17T12:04:36.319Z,99.99
2016-09-17T12:05:35.679Z,99.99
2016-09-17T12:06:38.245Z,99.99
2016-09-17T12:07:36.393Z,99.99
2016-09-17T12:08:37.345Z,99.99
2016-09-17T12:09:36.845Z,99.99
2016-09-17T12:10:36.443Z,99.99
2016-09-17T12:11:36.261Z,99.99
2016-09-17T12:12:36.723Z,99.99
2016-09-17T12:13:39.342Z,99.99
2016-09-17T12:14:37.356Z,99.99
2016-09-17T12:15:37.049Z,99.99
2016-09-17T12:16:36.418Z,99.99
2016-09-17T12:17:37.117Z,99.99
2016-09-17T12:18:37.350Z,99.99
2016-09-17T12:19:36.408Z,99.99
2016-09-17T12:20:36.420Z,99.99
2016-09-17T12:21:37.643Z,99.99
2016-09-17T12:22:37.726Z,99.99
2016-09-17T12:23:37.441Z,99.99
2016-09-17T12:24:36.788Z,99.99
2016-09-17T12:25:37.471Z,99.99
2016-09-17T12:26:38.471Z,99.99
2016-09-17T12:27:37.938Z,99.99
2016-09-17T12:28:37.469Z,99.99
2016-09-17T12:29:36.158Z,99.99
2016-09-17T12:30:37.343Z,99.99
2016-09-17T12:31:36.826Z,99.99
2016-09-17T12:32:38.619Z,99.99
2016-09-17T12:33:36.439Z,99.99
2016-09-17T12:34:38.547Z,99.99
2016-09-17T12:35:38.025Z,99.99
2016-09-17T12:36:38.025Z,99.99
2016-09-17T12:37:38.333Z,99.99
2016-09-17T12:38:36.855Z,99.99
2016-09-17T12:39:37.669Z,99.99
2016-09-17T12:40:36.556Z,99.99
2016-09-17T12:41:37.316Z,99.99
2016-09-17T12:42:36.503Z,99.99
2016-09-17T12:43:38.157Z,99.99
2016-09-17T12:44:38.204Z,99.99
2016-09-17T12:45:36.923Z,99.99
2016-09-17T12:46:36.995Z,99.99
2016-09-17T12:47:36.752Z,99.99
2016-09-17T12:48:38.608Z,99.99
2016-09-17T12:49:36.558Z,99.99
2016-09-17T12:50:36.505Z,99.99
2016-09-17T12:51:36.743Z,99.99
2016-09-17T12:52:37.649Z,99.99
2016-09-17T12:53:37.007Z,99.99